sensor_id;sensor_type;location;lat;lon;timestamp;P1;durP1;ratioP1;P2;durP2;ratioP2
22282;SDS011;11310;51.528;21.204;2024-02-14T00:01:16;103.28;;;14.50;;
22282;SDS011;11310;51.528;21.204;2024-02-14T00:03:47;93.03;;;13.95;;
22282;SDS011;11310;51.528;21.204;2024-02-14T00:06:19;82.85;;;12.70;;
22282;SDS011;11310;51.528;21.204;2024-02-14T00:08:47;104.88;;;15.45;;
22282;SDS011;11310;51.528;21.204;2024-02-14T00:11:16;96.50;;;15.00;;
22282;SDS011;11310;51.528;21.204;2024-02-14T00:13:45;123.47;;;18.27;;
22282;SDS011;11310;51.528;21.204;2024-02-14T00:18:48;119.70;;;18.02;;
22282;SDS011;11310;51.528;21.204;2024-02-14T00:21:18;97.10;;;15.10;;
22282;SDS011;11310;51.528;21.204;2024-02-14T00:23:47;97.53;;;15.35;;
22282;SDS011;11310;51.528;21.204;2024-02-14T00:26:18;94.47;;;14.90;;
22282;SDS011;11310;51.528;21.204;2024-02-14T00:28:51;107.93;;;16.92;;
22282;SDS011;11310;51.528;21.204;2024-02-14T00:31:20;80.20;;;13.85;;
22282;SDS011;11310;51.528;21.204;2024-02-14T00:33:48;92.38;;;14.45;;
22282;SDS011;11310;51.528;21.204;2024-02-14T00:36:18;87.05;;;13.68;;
22282;SDS011;11310;51.528;21.204;2024-02-14T00:38:47;104.63;;;16.90;;
22282;SDS011;11310;51.528;21.204;2024-02-14T00:41:16;115.20;;;17.63;;
22282;SDS011;11310;51.528;21.204;2024-02-14T00:43:45;71.32;;;12.40;;
22282;SDS011;11310;51.528;21.204;2024-02-14T00:46:16;114.28;;;17.83;;
22282;SDS011;11310;51.528;21.204;2024-02-14T00:48:45;82.32;;;14.02;;
22282;SDS011;11310;51.528;21.204;2024-02-14T00:51:14;112.82;;;17.08;;
22282;SDS011;11310;51.528;21.204;2024-02-14T00:53:43;72.97;;;12.13;;
22282;SDS011;11310;51.528;21.204;2024-02-14T00:56:12;85.30;;;13.70;;
22282;SDS011;11310;51.528;21.204;2024-02-14T00:58:40;76.72;;;12.55;;
22282;SDS011;11310;51.528;21.204;2024-02-14T01:01:09;83.07;;;13.63;;
22282;SDS011;11310;51.528;21.204;2024-02-14T01:03:40;99.75;;;15.60;;
22282;SDS011;11310;51.528;21.204;2024-02-14T01:06:09;74.97;;;12.70;;
22282;SDS011;11310;51.528;21.204;2024-02-14T01:08:38;98.95;;;15.27;;
22282;SDS011;11310;51.528;21.204;2024-02-14T01:11:09;110.35;;;16.52;;
22282;SDS011;11310;51.528;21.204;2024-02-14T01:13:37;109.55;;;17.00;;
22282;SDS011;11310;51.528;21.204;2024-02-14T01:16:06;77.93;;;13.02;;
22282;SDS011;11310;51.528;21.204;2024-02-14T01:18:34;124.88;;;18.90;;
22282;SDS011;11310;51.528;21.204;2024-02-14T01:21:07;118.00;;;18.10;;
22282;SDS011;11310;51.528;21.204;2024-02-14T01:23:36;123.70;;;18.42;;
22282;SDS011;11310;51.528;21.204;2024-02-14T01:26:04;153.27;;;23.00;;
22282;SDS011;11310;51.528;21.204;2024-02-14T01:28:33;110.25;;;16.73;;
22282;SDS011;11310;51.528;21.204;2024-02-14T01:31:01;145.02;;;21.23;;
22282;SDS011;11310;51.528;21.204;2024-02-14T01:33:30;91.47;;;14.60;;
22282;SDS011;11310;51.528;21.204;2024-02-14T01:35:59;132.20;;;20.48;;
22282;SDS011;11310;51.528;21.204;2024-02-14T01:38:29;113.82;;;17.42;;
22282;SDS011;11310;51.528;21.204;2024-02-14T01:41:01;167.73;;;25.33;;
22282;SDS011;11310;51.528;21.204;2024-02-14T01:43:30;76.72;;;13.00;;
22282;SDS011;11310;51.528;21.204;2024-02-14T01:46:02;127.55;;;20.65;;
22282;SDS011;11310;51.528;21.204;2024-02-14T01:48:33;123.95;;;18.13;;
22282;SDS011;11310;51.528;21.204;2024-02-14T01:51:02;105.07;;;16.73;;
22282;SDS011;11310;51.528;21.204;2024-02-14T01:53:35;97.43;;;15.52;;
22282;SDS011;11310;51.528;21.204;2024-02-14T01:56:05;109.17;;;17.57;;
22282;SDS011;11310;51.528;21.204;2024-02-14T01:58:34;122.03;;;18.42;;
22282;SDS011;11310;51.528;21.204;2024-02-14T02:01:04;111.35;;;17.30;;
22282;SDS011;11310;51.528;21.204;2024-02-14T02:03:34;117.53;;;18.38;;
22282;SDS011;11310;51.528;21.204;2024-02-14T02:06:04;102.45;;;16.75;;
22282;SDS011;11310;51.528;21.204;2024-02-14T02:08:35;76.82;;;13.30;;
22282;SDS011;11310;51.528;21.204;2024-02-14T02:11:04;107.75;;;17.55;;
22282;SDS011;11310;51.528;21.204;2024-02-14T02:13:33;99.38;;;15.90;;
22282;SDS011;11310;51.528;21.204;2024-02-14T02:16:02;126.20;;;19.10;;
22282;SDS011;11310;51.528;21.204;2024-02-14T02:18:31;86.20;;;13.80;;
22282;SDS011;11310;51.528;21.204;2024-02-14T02:21:00;146.23;;;22.23;;
22282;SDS011;11310;51.528;21.204;2024-02-14T02:23:32;86.45;;;13.82;;
22282;SDS011;11310;51.528;21.204;2024-02-14T02:26:04;113.82;;;17.70;;
22282;SDS011;11310;51.528;21.204;2024-02-14T02:28:33;88.07;;;14.07;;
22282;SDS011;11310;51.528;21.204;2024-02-14T02:31:01;114.20;;;17.65;;
22282;SDS011;11310;51.528;21.204;2024-02-14T02:33:29;104.07;;;15.77;;
22282;SDS011;11310;51.528;21.204;2024-02-14T02:35:58;106.20;;;16.38;;
22282;SDS011;11310;51.528;21.204;2024-02-14T02:38:27;167.73;;;24.08;;
22282;SDS011;11310;51.528;21.204;2024-02-14T02:40:58;93.97;;;14.88;;
22282;SDS011;11310;51.528;21.204;2024-02-14T02:43:27;185.40;;;26.52;;
22282;SDS011;11310;51.528;21.204;2024-02-14T02:48:27;132.63;;;19.98;;
22282;SDS011;11310;51.528;21.204;2024-02-14T02:50:59;113.57;;;16.95;;
22282;SDS011;11310;51.528;21.204;2024-02-14T02:53:28;107.93;;;16.67;;
22282;SDS011;11310;51.528;21.204;2024-02-14T02:55:59;126.78;;;19.52;;
22282;SDS011;11310;51.528;21.204;2024-02-14T02:58:27;102.35;;;16.10;;
22282;SDS011;11310;51.528;21.204;2024-02-14T03:00:56;101.18;;;15.27;;
22282;SDS011;11310;51.528;21.204;2024-02-14T03:03:25;120.47;;;17.83;;
22282;SDS011;11310;51.528;21.204;2024-02-14T03:05:55;122.10;;;18.63;;
22282;SDS011;11310;51.528;21.204;2024-02-14T03:08:23;105.00;;;16.98;;
22282;SDS011;11310;51.528;21.204;2024-02-14T03:10:52;114.10;;;17.55;;
22282;SDS011;11310;51.528;21.204;2024-02-14T03:13:22;72.88;;;12.27;;
22282;SDS011;11310;51.528;21.204;2024-02-14T03:15:51;118.22;;;17.90;;
22282;SDS011;11310;51.528;21.204;2024-02-14T03:18:19;98.70;;;16.25;;
22282;SDS011;11310;51.528;21.204;2024-02-14T03:20:48;64.85;;;11.85;;
22282;SDS011;11310;51.528;21.204;2024-02-14T03:23:17;127.97;;;20.40;;
22282;SDS011;11310;51.528;21.204;2024-02-14T03:25:49;132.02;;;19.88;;
22282;SDS011;11310;51.528;21.204;2024-02-14T03:28:19;139.43;;;21.33;;
22282;SDS011;11310;51.528;21.204;2024-02-14T03:30:49;177.52;;;25.70;;
22282;SDS011;11310;51.528;21.204;2024-02-14T03:33:18;126.88;;;20.40;;
22282;SDS011;11310;51.528;21.204;2024-02-14T03:35:47;61.83;;;11.02;;
22282;SDS011;11310;51.528;21.204;2024-02-14T03:38:24;132.90;;;20.75;;
22282;SDS011;11310;51.528;21.204;2024-02-14T03:40:53;79.72;;;12.93;;
22282;SDS011;11310;51.528;21.204;2024-02-14T03:43:22;134.70;;;20.65;;
22282;SDS011;11310;51.528;21.204;2024-02-14T03:45:55;74.35;;;12.63;;
22282;SDS011;11310;51.528;21.204;2024-02-14T03:48:23;99.75;;;15.65;;
22282;SDS011;11310;51.528;21.204;2024-02-14T03:50:52;85.72;;;13.93;;
22282;SDS011;11310;51.528;21.204;2024-02-14T03:53:21;111.72;;;17.15;;
22282;SDS011;11310;51.528;21.204;2024-02-14T03:55:50;119.75;;;18.77;;
22282;SDS011;11310;51.528;21.204;2024-02-14T03:58:20;90.72;;;14.52;;
22282;SDS011;11310;51.528;21.204;2024-02-14T04:00:49;132.05;;;20.15;;
22282;SDS011;11310;51.528;21.204;2024-02-14T04:03:20;115.75;;;18.20;;
22282;SDS011;11310;51.528;21.204;2024-02-14T04:05:49;112.57;;;17.70;;
22282;SDS011;11310;51.528;21.204;2024-02-14T04:08:18;106.68;;;17.10;;
22282;SDS011;11310;51.528;21.204;2024-02-14T04:10:48;87.25;;;14.10;;
22282;SDS011;11310;51.528;21.204;2024-02-14T04:13:19;101.97;;;16.13;;
22282;SDS011;11310;51.528;21.204;2024-02-14T04:15:48;93.60;;;14.55;;
22282;SDS011;11310;51.528;21.204;2024-02-14T04:18:19;98.47;;;15.88;;
22282;SDS011;11310;51.528;21.204;2024-02-14T04:20:49;79.45;;;12.90;;
22282;SDS011;11310;51.528;21.204;2024-02-14T04:23:18;116.00;;;18.67;;
22282;SDS011;11310;51.528;21.204;2024-02-14T04:25:47;84.93;;;15.00;;
22282;SDS011;11310;51.528;21.204;2024-02-14T04:28:16;96.57;;;17.13;;
22282;SDS011;11310;51.528;21.204;2024-02-14T04:30:45;108.63;;;18.30;;
22282;SDS011;11310;51.528;21.204;2024-02-14T04:33:15;99.32;;;17.38;;
22282;SDS011;11310;51.528;21.204;2024-02-14T04:35:46;65.57;;;14.48;;
22282;SDS011;11310;51.528;21.204;2024-02-14T04:38:15;50.65;;;12.95;;
22282;SDS011;11310;51.528;21.204;2024-02-14T04:40:45;52.95;;;12.52;;
22282;SDS011;11310;51.528;21.204;2024-02-14T04:43:15;54.63;;;13.50;;
22282;SDS011;11310;51.528;21.204;2024-02-14T04:45:45;71.82;;;16.00;;
22282;SDS011;11310;51.528;21.204;2024-02-14T04:48:13;89.47;;;19.15;;
22282;SDS011;11310;51.528;21.204;2024-02-14T04:50:43;38.90;;;10.50;;
22282;SDS011;11310;51.528;21.204;2024-02-14T04:53:14;52.70;;;13.43;;
22282;SDS011;11310;51.528;21.204;2024-02-14T04:55:44;48.30;;;12.47;;
22282;SDS011;11310;51.528;21.204;2024-02-14T04:58:13;58.35;;;14.38;;
22282;SDS011;11310;51.528;21.204;2024-02-14T05:00:42;39.47;;;10.70;;
22282;SDS011;11310;51.528;21.204;2024-02-14T05:03:11;66.57;;;16.40;;
22282;SDS011;11310;51.528;21.204;2024-02-14T05:05:40;56.60;;;14.32;;
22282;SDS011;11310;51.528;21.204;2024-02-14T05:08:08;35.95;;;11.57;;
22282;SDS011;11310;51.528;21.204;2024-02-14T05:10:38;37.50;;;12.32;;
22282;SDS011;11310;51.528;21.204;2024-02-14T05:13:07;50.33;;;16.58;;
22282;SDS011;11310;51.528;21.204;2024-02-14T05:15:39;26.85;;;11.43;;
22282;SDS011;11310;51.528;21.204;2024-02-14T05:18:08;34.65;;;15.18;;
22282;SDS011;11310;51.528;21.204;2024-02-14T05:20:37;18.65;;;9.10;;
22282;SDS011;11310;51.528;21.204;2024-02-14T05:23:06;15.77;;;7.18;;
22282;SDS011;11310;51.528;21.204;2024-02-14T05:25:37;16.15;;;7.07;;
22282;SDS011;11310;51.528;21.204;2024-02-14T05:28:07;15.35;;;6.63;;
22282;SDS011;11310;51.528;21.204;2024-02-14T05:30:40;18.75;;;6.70;;
22282;SDS011;11310;51.528;21.204;2024-02-14T05:33:09;14.48;;;6.68;;
22282;SDS011;11310;51.528;21.204;2024-02-14T05:35:39;12.50;;;6.28;;
22282;SDS011;11310;51.528;21.204;2024-02-14T05:38:09;17.90;;;6.35;;
22282;SDS011;11310;51.528;21.204;2024-02-14T05:40:39;16.25;;;6.85;;
22282;SDS011;11310;51.528;21.204;2024-02-14T05:43:11;17.67;;;6.93;;
22282;SDS011;11310;51.528;21.204;2024-02-14T05:45:40;16.35;;;8.32;;
22282;SDS011;11310;51.528;21.204;2024-02-14T05:48:09;20.70;;;7.15;;
22282;SDS011;11310;51.528;21.204;2024-02-14T05:50:38;18.35;;;7.70;;
22282;SDS011;11310;51.528;21.204;2024-02-14T05:53:07;20.70;;;8.32;;
22282;SDS011;11310;51.528;21.204;2024-02-14T05:55:36;20.25;;;8.18;;
22282;SDS011;11310;51.528;21.204;2024-02-14T05:58:10;22.95;;;7.97;;
22282;SDS011;11310;51.528;21.204;2024-02-14T06:00:39;14.65;;;6.90;;
22282;SDS011;11310;51.528;21.204;2024-02-14T06:03:08;19.10;;;7.95;;
22282;SDS011;11310;51.528;21.204;2024-02-14T06:05:39;17.15;;;7.78;;
22282;SDS011;11310;51.528;21.204;2024-02-14T06:08:09;17.30;;;8.00;;
22282;SDS011;11310;51.528;21.204;2024-02-14T06:10:39;19.27;;;7.55;;
22282;SDS011;11310;51.528;21.204;2024-02-14T06:13:12;18.52;;;7.78;;
22282;SDS011;11310;51.528;21.204;2024-02-14T06:15:41;15.30;;;7.55;;
22282;SDS011;11310;51.528;21.204;2024-02-14T06:18:10;19.40;;;8.13;;
22282;SDS011;11310;51.528;21.204;2024-02-14T06:20:39;17.55;;;7.68;;
22282;SDS011;11310;51.528;21.204;2024-02-14T06:23:08;17.13;;;8.02;;
22282;SDS011;11310;51.528;21.204;2024-02-14T06:25:37;18.75;;;8.15;;
22282;SDS011;11310;51.528;21.204;2024-02-14T06:28:05;18.73;;;7.55;;
22282;SDS011;11310;51.528;21.204;2024-02-14T06:30:38;17.98;;;7.97;;
22282;SDS011;11310;51.528;21.204;2024-02-14T06:33:07;23.75;;;9.07;;
22282;SDS011;11310;51.528;21.204;2024-02-14T06:35:38;21.73;;;8.93;;
22282;SDS011;11310;51.528;21.204;2024-02-14T06:38:07;20.52;;;9.77;;
22282;SDS011;11310;51.528;21.204;2024-02-14T06:40:36;25.42;;;9.73;;
22282;SDS011;11310;51.528;21.204;2024-02-14T06:43:05;17.75;;;8.23;;
22282;SDS011;11310;51.528;21.204;2024-02-14T06:45:36;21.80;;;9.15;;
22282;SDS011;11310;51.528;21.204;2024-02-14T06:48:09;20.43;;;9.03;;
22282;SDS011;11310;51.528;21.204;2024-02-14T06:50:38;20.90;;;8.55;;
22282;SDS011;11310;51.528;21.204;2024-02-14T06:53:06;22.33;;;8.48;;
22282;SDS011;11310;51.528;21.204;2024-02-14T06:55:38;17.48;;;8.38;;
22282;SDS011;11310;51.528;21.204;2024-02-14T06:58:07;21.48;;;8.38;;
22282;SDS011;11310;51.528;21.204;2024-02-14T07:00:36;26.45;;;9.15;;
22282;SDS011;11310;51.528;21.204;2024-02-14T07:03:04;18.85;;;8.65;;
22282;SDS011;11310;51.528;21.204;2024-02-14T07:05:35;18.52;;;8.43;;
22282;SDS011;11310;51.528;21.204;2024-02-14T07:08:04;24.08;;;10.07;;
22282;SDS011;11310;51.528;21.204;2024-02-14T07:10:35;25.33;;;8.73;;
22282;SDS011;11310;51.528;21.204;2024-02-14T07:13:04;24.10;;;10.13;;
22282;SDS011;11310;51.528;21.204;2024-02-14T07:15:33;20.38;;;8.32;;
22282;SDS011;11310;51.528;21.204;2024-02-14T07:18:02;20.15;;;9.10;;
22282;SDS011;11310;51.528;21.204;2024-02-14T07:20:30;22.85;;;9.82;;
22282;SDS011;11310;51.528;21.204;2024-02-14T07:23:01;20.40;;;8.60;;
22282;SDS011;11310;51.528;21.204;2024-02-14T07:25:31;18.55;;;9.00;;
22282;SDS011;11310;51.528;21.204;2024-02-14T07:27:59;18.92;;;8.70;;
22282;SDS011;11310;51.528;21.204;2024-02-14T07:30:28;17.42;;;8.85;;
22282;SDS011;11310;51.528;21.204;2024-02-14T07:32:57;21.83;;;9.77;;
22282;SDS011;11310;51.528;21.204;2024-02-14T07:35:27;21.10;;;9.27;;
22282;SDS011;11310;51.528;21.204;2024-02-14T07:37:56;22.42;;;9.57;;
22282;SDS011;11310;51.528;21.204;2024-02-14T07:40:30;20.13;;;9.70;;
22282;SDS011;11310;51.528;21.204;2024-02-14T07:43:00;23.90;;;9.40;;
22282;SDS011;11310;51.528;21.204;2024-02-14T07:45:30;26.73;;;9.75;;
22282;SDS011;11310;51.528;21.204;2024-02-14T07:47:59;23.80;;;9.43;;
22282;SDS011;11310;51.528;21.204;2024-02-14T07:50:29;21.23;;;9.30;;
22282;SDS011;11310;51.528;21.204;2024-02-14T07:52:59;22.70;;;9.48;;
22282;SDS011;11310;51.528;21.204;2024-02-14T07:55:29;22.70;;;10.45;;
22282;SDS011;11310;51.528;21.204;2024-02-14T07:57:57;21.40;;;9.25;;
22282;SDS011;11310;51.528;21.204;2024-02-14T08:00:30;20.42;;;9.23;;
22282;SDS011;11310;51.528;21.204;2024-02-14T08:02:59;20.13;;;9.70;;
22282;SDS011;11310;51.528;21.204;2024-02-14T08:05:30;21.55;;;9.68;;
22282;SDS011;11310;51.528;21.204;2024-02-14T08:08:04;23.30;;;9.30;;
22282;SDS011;11310;51.528;21.204;2024-02-14T08:10:34;23.30;;;9.70;;
22282;SDS011;11310;51.528;21.204;2024-02-14T08:13:03;18.20;;;9.00;;
22282;SDS011;11310;51.528;21.204;2024-02-14T08:15:32;20.60;;;8.43;;
22282;SDS011;11310;51.528;21.204;2024-02-14T08:18:05;19.15;;;8.18;;
22282;SDS011;11310;51.528;21.204;2024-02-14T08:20:36;21.70;;;8.15;;
22282;SDS011;11310;51.528;21.204;2024-02-14T08:23:08;15.35;;;7.25;;
22282;SDS011;11310;51.528;21.204;2024-02-14T08:25:38;14.90;;;6.88;;
22282;SDS011;11310;51.528;21.204;2024-02-14T08:28:09;18.13;;;7.63;;
22282;SDS011;11310;51.528;21.204;2024-02-14T08:30:39;18.70;;;6.70;;
22282;SDS011;11310;51.528;21.204;2024-02-14T08:33:08;13.63;;;6.40;;
22282;SDS011;11310;51.528;21.204;2024-02-14T08:35:38;15.50;;;6.22;;
22282;SDS011;11310;51.528;21.204;2024-02-14T08:38:10;16.13;;;6.22;;
22282;SDS011;11310;51.528;21.204;2024-02-14T08:41:24;15.88;;;5.57;;
22282;SDS011;11310;51.528;21.204;2024-02-14T08:43:52;9.52;;;4.72;;
22282;SDS011;11310;51.528;21.204;2024-02-14T08:46:21;12.43;;;5.05;;
22282;SDS011;11310;51.528;21.204;2024-02-14T08:48:50;13.73;;;5.38;;
22282;SDS011;11310;51.528;21.204;2024-02-14T08:51:19;14.43;;;5.30;;
22282;SDS011;11310;51.528;21.204;2024-02-14T08:53:49;10.43;;;4.90;;
22282;SDS011;11310;51.528;21.204;2024-02-14T08:56:21;12.68;;;4.80;;
22282;SDS011;11310;51.528;21.204;2024-02-14T08:58:54;11.07;;;4.38;;
22282;SDS011;11310;51.528;21.204;2024-02-14T09:01:23;11.38;;;4.05;;
22282;SDS011;11310;51.528;21.204;2024-02-14T09:03:53;12.52;;;3.85;;
22282;SDS011;11310;51.528;21.204;2024-02-14T09:06:21;10.05;;;3.75;;
22282;SDS011;11310;51.528;21.204;2024-02-14T09:08:51;11.50;;;3.25;;
22282;SDS011;11310;51.528;21.204;2024-02-14T09:11:22;8.70;;;2.92;;
22282;SDS011;11310;51.528;21.204;2024-02-14T09:13:57;11.35;;;3.53;;
22282;SDS011;11310;51.528;21.204;2024-02-14T09:16:40;7.95;;;3.55;;
22282;SDS011;11310;51.528;21.204;2024-02-14T09:19:12;10.88;;;3.60;;
22282;SDS011;11310;51.528;21.204;2024-02-14T09:21:49;9.40;;;3.45;;
22282;SDS011;11310;51.528;21.204;2024-02-14T09:24:20;12.60;;;3.28;;
22282;SDS011;11310;51.528;21.204;2024-02-14T09:26:52;7.43;;;2.70;;
22282;SDS011;11310;51.528;21.204;2024-02-14T09:29:22;6.38;;;3.08;;
22282;SDS011;11310;51.528;21.204;2024-02-14T09:31:50;6.70;;;3.15;;
22282;SDS011;11310;51.528;21.204;2024-02-14T09:34:19;7.22;;;2.53;;
22282;SDS011;11310;51.528;21.204;2024-02-14T09:36:53;8.05;;;2.70;;
22282;SDS011;11310;51.528;21.204;2024-02-14T09:39:26;6.90;;;2.08;;
22282;SDS011;11310;51.528;21.204;2024-02-14T09:41:58;10.10;;;2.10;;
22282;SDS011;11310;51.528;21.204;2024-02-14T09:44:31;7.10;;;2.30;;
22282;SDS011;11310;51.528;21.204;2024-02-14T09:47:01;6.82;;;2.55;;
22282;SDS011;11310;51.528;21.204;2024-02-14T09:49:31;5.68;;;2.13;;
22282;SDS011;11310;51.528;21.204;2024-02-14T09:52:04;7.57;;;2.05;;
22282;SDS011;11310;51.528;21.204;2024-02-14T09:54:33;4.25;;;1.77;;
22282;SDS011;11310;51.528;21.204;2024-02-14T09:57:07;5.55;;;1.80;;
22282;SDS011;11310;51.528;21.204;2024-02-14T09:59:38;6.53;;;1.60;;
22282;SDS011;11310;51.528;21.204;2024-02-14T10:02:09;4.03;;;1.17;;
22282;SDS011;11310;51.528;21.204;2024-02-14T10:04:38;3.60;;;1.65;;
22282;SDS011;11310;51.528;21.204;2024-02-14T10:07:08;4.07;;;1.63;;
22282;SDS011;11310;51.528;21.204;2024-02-14T10:09:40;3.45;;;1.35;;
22282;SDS011;11310;51.528;21.204;2024-02-14T10:12:13;3.83;;;1.67;;
22282;SDS011;11310;51.528;21.204;2024-02-14T10:17:19;4.97;;;1.98;;
22282;SDS011;11310;51.528;21.204;2024-02-14T10:19:54;4.43;;;1.75;;
22282;SDS011;11310;51.528;21.204;2024-02-14T10:22:25;5.85;;;2.20;;
22282;SDS011;11310;51.528;21.204;2024-02-14T10:25:02;7.47;;;3.45;;
22282;SDS011;11310;51.528;21.204;2024-02-14T10:27:30;7.22;;;2.97;;
22282;SDS011;11310;51.528;21.204;2024-02-14T10:30:01;5.13;;;2.00;;
22282;SDS011;11310;51.528;21.204;2024-02-14T10:32:34;4.82;;;1.90;;
22282;SDS011;11310;51.528;21.204;2024-02-14T10:37:36;3.78;;;1.55;;
22282;SDS011;11310;51.528;21.204;2024-02-14T10:40:07;2.00;;;1.20;;
22282;SDS011;11310;51.528;21.204;2024-02-14T10:42:38;4.22;;;1.35;;
22282;SDS011;11310;51.528;21.204;2024-02-14T10:45:09;3.05;;;1.40;;
22282;SDS011;11310;51.528;21.204;2024-02-14T10:47:42;2.92;;;1.10;;
22282;SDS011;11310;51.528;21.204;2024-02-14T10:50:20;4.05;;;1.30;;
22282;SDS011;11310;51.528;21.204;2024-02-14T10:52:50;6.15;;;2.20;;
22282;SDS011;11310;51.528;21.204;2024-02-14T10:55:29;4.78;;;1.60;;
22282;SDS011;11310;51.528;21.204;2024-02-14T10:58:02;6.43;;;1.80;;
22282;SDS011;11310;51.528;21.204;2024-02-14T11:00:33;3.08;;;1.40;;
22282;SDS011;11310;51.528;21.204;2024-02-14T11:03:02;3.10;;;1.48;;
22282;SDS011;11310;51.528;21.204;2024-02-14T11:05:46;5.90;;;1.33;;
22282;SDS011;11310;51.528;21.204;2024-02-14T11:08:20;4.90;;;1.42;;
22282;SDS011;11310;51.528;21.204;2024-02-14T11:10:53;3.45;;;1.20;;
22282;SDS011;11310;51.528;21.204;2024-02-14T11:13:25;5.20;;;1.30;;
22282;SDS011;11310;51.528;21.204;2024-02-14T11:15:57;4.50;;;2.17;;
22282;SDS011;11310;51.528;21.204;2024-02-14T11:18:30;3.65;;;1.63;;
22282;SDS011;11310;51.528;21.204;2024-02-14T11:21:15;6.35;;;1.60;;
22282;SDS011;11310;51.528;21.204;2024-02-14T11:23:52;4.40;;;1.48;;
22282;SDS011;11310;51.528;21.204;2024-02-14T11:26:22;5.50;;;2.25;;
22282;SDS011;11310;51.528;21.204;2024-02-14T11:29:04;2.83;;;1.60;;
22282;SDS011;11310;51.528;21.204;2024-02-14T11:31:38;8.65;;;2.17;;
22282;SDS011;11310;51.528;21.204;2024-02-14T11:34:14;6.40;;;2.13;;
22282;SDS011;11310;51.528;21.204;2024-02-14T11:36:46;4.35;;;1.80;;
22282;SDS011;11310;51.528;21.204;2024-02-14T11:39:15;5.75;;;1.63;;
22282;SDS011;11310;51.528;21.204;2024-02-14T11:41:48;4.40;;;1.80;;
22282;SDS011;11310;51.528;21.204;2024-02-14T11:44:18;7.32;;;2.00;;
22282;SDS011;11310;51.528;21.204;2024-02-14T11:46:50;4.10;;;1.40;;
22282;SDS011;11310;51.528;21.204;2024-02-14T11:49:19;2.85;;;1.50;;
22282;SDS011;11310;51.528;21.204;2024-02-14T11:51:48;5.07;;;1.35;;
22282;SDS011;11310;51.528;21.204;2024-02-14T11:54:22;2.65;;;1.20;;
22282;SDS011;11310;51.528;21.204;2024-02-14T11:56:52;84.25;;;11.23;;
22282;SDS011;11310;51.528;21.204;2024-02-14T11:59:23;188.33;;;23.00;;
22282;SDS011;11310;51.528;21.204;2024-02-14T12:01:56;239.70;;;117.88;;
22282;SDS011;11310;51.528;21.204;2024-02-14T12:04:39;5.43;;;1.58;;
22282;SDS011;11310;51.528;21.204;2024-02-14T12:07:08;3.67;;;1.30;;
22282;SDS011;11310;51.528;21.204;2024-02-14T12:09:38;3.80;;;1.50;;
22282;SDS011;11310;51.528;21.204;2024-02-14T12:12:08;3.45;;;1.50;;
22282;SDS011;11310;51.528;21.204;2024-02-14T12:14:36;4.82;;;1.65;;
22282;SDS011;11310;51.528;21.204;2024-02-14T12:17:07;3.03;;;1.60;;
22282;SDS011;11310;51.528;21.204;2024-02-14T12:19:36;5.65;;;1.67;;
22282;SDS011;11310;51.528;21.204;2024-02-14T12:22:09;3.85;;;2.28;;
22282;SDS011;11310;51.528;21.204;2024-02-14T12:24:38;4.25;;;1.85;;
22282;SDS011;11310;51.528;21.204;2024-02-14T12:27:08;4.65;;;1.40;;
22282;SDS011;11310;51.528;21.204;2024-02-14T12:29:37;3.90;;;1.40;;
22282;SDS011;11310;51.528;21.204;2024-02-14T12:32:08;4.40;;;1.67;;
22282;SDS011;11310;51.528;21.204;2024-02-14T12:34:37;2.15;;;1.20;;
22282;SDS011;11310;51.528;21.204;2024-02-14T12:37:05;4.05;;;1.45;;
22282;SDS011;11310;51.528;21.204;2024-02-14T12:39:39;7.13;;;3.13;;
22282;SDS011;11310;51.528;21.204;2024-02-14T12:44:38;18.33;;;7.95;;
22282;SDS011;11310;51.528;21.204;2024-02-14T12:47:08;9.52;;;4.68;;
22282;SDS011;11310;51.528;21.204;2024-02-14T12:49:41;12.57;;;6.05;;
22282;SDS011;11310;51.528;21.204;2024-02-14T12:52:10;9.70;;;5.20;;
22282;SDS011;11310;51.528;21.204;2024-02-14T12:54:39;11.52;;;6.32;;
22282;SDS011;11310;51.528;21.204;2024-02-14T12:57:14;7.32;;;3.80;;
22282;SDS011;11310;51.528;21.204;2024-02-14T12:59:45;12.63;;;6.30;;
22282;SDS011;11310;51.528;21.204;2024-02-14T13:02:15;23.27;;;10.25;;
22282;SDS011;11310;51.528;21.204;2024-02-14T13:04:48;29.52;;;10.43;;
22282;SDS011;11310;51.528;21.204;2024-02-14T13:07:17;29.17;;;9.38;;
22282;SDS011;11310;51.528;21.204;2024-02-14T13:09:47;45.72;;;10.50;;
22282;SDS011;11310;51.528;21.204;2024-02-14T13:12:18;41.40;;;8.20;;
22282;SDS011;11310;51.528;21.204;2024-02-14T13:14:50;40.67;;;10.73;;
22282;SDS011;11310;51.528;21.204;2024-02-14T13:17:20;28.27;;;7.68;;
22282;SDS011;11310;51.528;21.204;2024-02-14T13:19:50;25.27;;;8.77;;
22282;SDS011;11310;51.528;21.204;2024-02-14T13:22:23;10.90;;;4.95;;
22282;SDS011;11310;51.528;21.204;2024-02-14T13:24:52;22.55;;;8.30;;
22282;SDS011;11310;51.528;21.204;2024-02-14T13:27:20;40.53;;;7.88;;
22282;SDS011;11310;51.528;21.204;2024-02-14T13:29:50;46.13;;;9.52;;
22282;SDS011;11310;51.528;21.204;2024-02-14T13:32:22;63.92;;;10.13;;
22282;SDS011;11310;51.528;21.204;2024-02-14T13:34:52;58.08;;;11.25;;
22282;SDS011;11310;51.528;21.204;2024-02-14T13:37:21;54.33;;;10.48;;
22282;SDS011;11310;51.528;21.204;2024-02-14T13:39:53;52.17;;;10.32;;
22282;SDS011;11310;51.528;21.204;2024-02-14T13:42:22;66.13;;;11.27;;
22282;SDS011;11310;51.528;21.204;2024-02-14T13:44:51;65.05;;;11.50;;
22282;SDS011;11310;51.528;21.204;2024-02-14T13:47:23;53.55;;;9.55;;
22282;SDS011;11310;51.528;21.204;2024-02-14T13:49:52;8.70;;;4.03;;
22282;SDS011;11310;51.528;21.204;2024-02-14T13:52:21;4.93;;;2.53;;
22282;SDS011;11310;51.528;21.204;2024-02-14T13:54:54;5.35;;;2.70;;
22282;SDS011;11310;51.528;21.204;2024-02-14T13:57:26;5.75;;;1.52;;
22282;SDS011;11310;51.528;21.204;2024-02-14T13:59:55;3.55;;;1.83;;
22282;SDS011;11310;51.528;21.204;2024-02-14T14:02:25;3.72;;;1.25;;
22282;SDS011;11310;51.528;21.204;2024-02-14T14:04:56;5.05;;;1.90;;
22282;SDS011;11310;51.528;21.204;2024-02-14T14:07:26;4.45;;;1.40;;
22282;SDS011;11310;51.528;21.204;2024-02-14T14:09:55;4.90;;;1.40;;
22282;SDS011;11310;51.528;21.204;2024-02-14T14:12:24;3.70;;;1.50;;
22282;SDS011;11310;51.528;21.204;2024-02-14T14:14:53;3.75;;;1.50;;
22282;SDS011;11310;51.528;21.204;2024-02-14T14:17:22;4.72;;;1.50;;
22282;SDS011;11310;51.528;21.204;2024-02-14T14:19:53;3.30;;;1.55;;
22282;SDS011;11310;51.528;21.204;2024-02-14T14:22:22;4.53;;;1.17;;
22282;SDS011;11310;51.528;21.204;2024-02-14T14:24:55;5.05;;;1.90;;
22282;SDS011;11310;51.528;21.204;2024-02-14T14:27:24;5.68;;;1.90;;
22282;SDS011;11310;51.528;21.204;2024-02-14T14:29:54;4.05;;;1.77;;
22282;SDS011;11310;51.528;21.204;2024-02-14T14:32:23;4.63;;;1.77;;
22282;SDS011;11310;51.528;21.204;2024-02-14T14:34:54;8.40;;;2.88;;
22282;SDS011;11310;51.528;21.204;2024-02-14T14:37:23;8.43;;;2.95;;
22282;SDS011;11310;51.528;21.204;2024-02-14T14:39:51;12.40;;;4.50;;
22282;SDS011;11310;51.528;21.204;2024-02-14T14:42:22;11.38;;;3.60;;
22282;SDS011;11310;51.528;21.204;2024-02-14T14:44:51;7.65;;;3.25;;
22282;SDS011;11310;51.528;21.204;2024-02-14T14:47:20;7.95;;;2.28;;
22282;SDS011;11310;51.528;21.204;2024-02-14T14:49:56;3.17;;;1.33;;